Plata Pioneer — V7IW7 — position and weather

sailwx.info

Track history (hours):
 
Tides and Currents Weather Stations Pressure Air Temp Water Temp Dewpoint Dewpoint Depression Visibility Wind Speed Wind Dir Waves Ship Positions

Plata Pioneer

Last reported at 2018-Jan-20 03:40 UTC. Time now 2018-Jan-20 13:33 UTC.
Position N 34°37' E 130°12'.

Length 333 m; draft 11 m.

Type: Tanker. MMSI: 538006006.

Date/timePositionNaut miles runAvg speedWind from/ knotsBaromVisibWave heightAir tempDewpointWater temp
2018-Jan-20 03:40N 34°37' E 130°12'0 2.3
2018-Jan-20 03:31N 34°37' E 130°12'1 1.3
2018-Jan-20 02:59N 34°37' E 130°11'1 1.3
2018-Jan-20 02:30N 34°37' E 130°10'1 1.7
2018-Jan-20 01:58N 34°37' E 130°09'1 1.9
2018-Jan-20 01:30N 34°38' E 130°09'0 1.0
2018-Jan-20 01:00N 34°39' E 130°09'1 1.9
2018-Jan-20 00:30N 34°39' E 130°10'2 0.9
2018-Jan-19 22:19N 34°41' E 130°11'  
2018-Jan-12 14:59N 34°39' E 130°17'1 1.1
2018-Jan-12 14:31N 34°40' E 130°17'1 1.0
2018-Jan-12 14:01N 34°40' E 130°17'0 0.9
2018-Jan-12 13:30N 34°40' E 130°16'0 0.8
2018-Jan-12 13:01N 34°41' E 130°16'0 0.9
2018-Jan-12 12:31N 34°41' E 130°16'0 0.8
2018-Jan-12 12:00N 34°42' E 130°16'4 0.4
2018-Jan-12 02:57N 34°40' E 130°20'4 0.4
2018-Jan-11 15:16N 34°42' E 130°25'1 1.1
2018-Jan-11 14:18N 34°43' E 130°24'0 1.1
2018-Jan-11 13:55N 34°43' E 130°24'4 0.2
2018-Jan-10 18:27N 34°44' E 130°28'  
Track history (hours):
 
Tides and Currents Weather Stations Pressure Air Temp Water Temp Dewpoint Dewpoint Depression Visibility Wind Speed Wind Dir Waves Ship Positions

Plata Pioneer

Last reported at 2018-Jan-20 03:40 UTC. Time now 2018-Jan-20 13:33 UTC.
Position N 34°37' E 130°12'.

Length 333 m; draft 11 m.

Type: Tanker. MMSI: 538006006.

Date/timePositionNaut miles runAvg speedWind from/ knotsBaromVisibWave heightAir tempDewpointWater temp
2018-Jan-20 03:40N 34°37' E 130°12'0 2.3
2018-Jan-20 03:31N 34°37' E 130°12'1 1.3
2018-Jan-20 02:59N 34°37' E 130°11'1 1.3
2018-Jan-20 02:30N 34°37' E 130°10'1 1.7
2018-Jan-20 01:58N 34°37' E 130°09'1 1.9
2018-Jan-20 01:30N 34°38' E 130°09'0 1.0
2018-Jan-20 01:00N 34°39' E 130°09'1 1.9
2018-Jan-20 00:30N 34°39' E 130°10'2 0.9
2018-Jan-19 22:19N 34°41' E 130°11'  
2018-Jan-12 14:59N 34°39' E 130°17'1 1.1
2018-Jan-12 14:31N 34°40' E 130°17'1 1.0
2018-Jan-12 14:01N 34°40' E 130°17'0 0.9
2018-Jan-12 13:30N 34°40' E 130°16'0 0.8
2018-Jan-12 13:01N 34°41' E 130°16'0 0.9
2018-Jan-12 12:31N 34°41' E 130°16'0 0.8
2018-Jan-12 12:00N 34°42' E 130°16'4 0.4
2018-Jan-12 02:57N 34°40' E 130°20'4 0.4
2018-Jan-11 15:16N 34°42' E 130°25'1 1.1
2018-Jan-11 14:18N 34°43' E 130°24'0 1.1
2018-Jan-11 13:55N 34°43' E 130°24'4 0.2
2018-Jan-10 18:27N 34°44' E 130°28'  

Dump ship's entire track history